createdAt,value
2022-10-18T00:00:17.247Z,100.00
2022-10-18T00:02:52.908Z,100.00
2022-10-18T00:05:27.956Z,100.00
2022-10-18T00:08:08.382Z,100.00
2022-10-18T00:10:46.311Z,100.00
2022-10-18T00:13:24.362Z,100.00
2022-10-18T00:16:03.450Z,100.00
2022-10-18T00:18:37.663Z,100.00
2022-10-18T00:21:14.690Z,100.00
2022-10-18T00:23:57.237Z,100.00
2022-10-18T00:26:32.797Z,100.00
2022-10-18T00:29:18.790Z,100.00
2022-10-18T00:31:55.060Z,100.00
2022-10-18T00:34:36.123Z,100.00
2022-10-18T00:37:21.674Z,100.00
2022-10-18T00:40:04.105Z,100.00
2022-10-18T00:42:41.920Z,100.00
2022-10-18T00:45:29.927Z,100.00
2022-10-18T00:48:07.662Z,100.00
2022-10-18T00:50:50.680Z,100.00
2022-10-18T00:53:30.036Z,100.00
2022-10-18T00:56:15.304Z,100.00
2022-10-18T00:58:59.470Z,100.00
2022-10-18T01:01:42.961Z,100.00
2022-10-18T01:04:22.165Z,100.00
2022-10-18T01:07:09.225Z,100.00
2022-10-18T01:09:49.575Z,100.00
2022-10-18T01:12:55.995Z,100.00
2022-10-18T01:16:13.571Z,100.00
2022-10-18T01:18:51.518Z,100.00
2022-10-18T01:21:43.867Z,100.00
2022-10-18T01:24:48.888Z,100.00
2022-10-18T01:27:57.872Z,100.00
2022-10-18T01:30:52.289Z,100.00
2022-10-18T01:34:08.540Z,100.00
2022-10-18T01:36:52.489Z,100.00
2022-10-18T01:39:28.502Z,100.00
2022-10-18T01:42:13.138Z,100.00
2022-10-18T01:44:53.549Z,100.00
2022-10-18T01:47:38.476Z,100.00
2022-10-18T01:50:13.969Z,100.00
2022-10-18T01:53:00.459Z,100.00
2022-10-18T01:55:52.730Z,100.00
2022-10-18T01:58:41.003Z,100.00
2022-10-18T02:01:31.364Z,100.00
2022-10-18T02:04:28.133Z,100.00
2022-10-18T02:07:25.827Z,100.00
2022-10-18T02:10:29.205Z,100.00
2022-10-18T02:13:10.218Z,100.00
2022-10-18T02:15:51.021Z,100.00
2022-10-18T02:18:51.983Z,100.00
2022-10-18T02:21:40.965Z,100.00
2022-10-18T02:24:21.128Z,100.00
2022-10-18T02:26:58.742Z,100.00
2022-10-18T02:29:42.028Z,100.00
2022-10-18T02:32:43.171Z,100.00
2022-10-18T02:35:33.216Z,100.00
2022-10-18T02:38:18.752Z,100.00
2022-10-18T02:41:02.836Z,100.00
2022-10-18T02:43:46.184Z,100.00
2022-10-18T02:46:28.004Z,100.00
2022-10-18T02:49:17.942Z,100.00
2022-10-18T02:51:56.503Z,100.00
2022-10-18T02:54:41.811Z,100.00
2022-10-18T02:57:33.836Z,100.00
2022-10-18T03:00:15.821Z,100.00
2022-10-18T03:03:13.144Z,100.00
2022-10-18T03:05:54.445Z,100.00
2022-10-18T03:08:32.478Z,100.00
2022-10-18T03:11:07.452Z,100.00
2022-10-18T03:13:45.333Z,100.00
2022-10-18T03:16:31.332Z,100.00
2022-10-18T03:19:15.820Z,100.00
2022-10-18T03:21:54.403Z,100.00
2022-10-18T03:24:37.607Z,100.00
2022-10-18T03:27:25.727Z,100.00
2022-10-18T03:30:05.462Z,100.00
2022-10-18T03:32:41.050Z,100.00
2022-10-18T03:35:24.175Z,100.00
2022-10-18T03:38:13.084Z,100.00
2022-10-18T03:40:52.071Z,100.00
2022-10-18T03:43:27.798Z,100.00
2022-10-18T03:46:00.615Z,100.00
2022-10-18T03:48:52.658Z,100.00
2022-10-18T03:51:36.148Z,100.00
2022-10-18T03:54:14.165Z,100.00
2022-10-18T03:56:50.570Z,100.00
2022-10-18T03:59:31.472Z,100.00
2022-10-18T04:02:15.342Z,100.00
2022-10-18T04:04:50.648Z,100.00
2022-10-18T04:07:38.385Z,100.00
2022-10-18T04:10:18.821Z,100.00
2022-10-18T04:12:59.827Z,100.00
2022-10-18T04:15:35.601Z,100.00
2022-10-18T04:18:10.237Z,100.00
2022-10-18T04:20:57.076Z,100.00
2022-10-18T04:23:36.422Z,100.00
2022-10-18T04:26:22.876Z,100.00
2022-10-18T04:29:02.953Z,100.00
2022-10-18T04:31:30.064Z,100.00
2022-10-18T04:34:02.176Z,100.00
2022-10-18T04:36:40.154Z,100.00
2022-10-18T04:39:27.008Z,100.00
2022-10-18T04:42:13.711Z,100.00
2022-10-18T04:44:48.519Z,100.00
2022-10-18T04:47:26.374Z,100.00
2022-10-18T04:50:05.294Z,100.00
2022-10-18T04:52:58.499Z,100.00
2022-10-18T04:55:34.277Z,100.00
2022-10-18T04:58:13.329Z,100.00
2022-10-18T05:00:50.376Z,100.00
2022-10-18T05:03:39.123Z,100.00
2022-10-18T05:06:25.607Z,100.00
2022-10-18T05:09:18.673Z,100.00
2022-10-18T05:12:10.436Z,100.00
2022-10-18T05:14:46.325Z,100.00
2022-10-18T05:17:22.404Z,100.00
2022-10-18T05:19:58.239Z,100.00
2022-10-18T05:22:46.285Z,100.00
2022-10-18T05:25:18.608Z,100.00
2022-10-18T05:28:10.522Z,100.00
2022-10-18T05:30:55.161Z,100.00
2022-10-18T05:33:30.755Z,100.00
2022-10-18T05:36:10.541Z,100.00
2022-10-18T05:38:48.920Z,100.00
2022-10-18T05:41:31.858Z,100.00
2022-10-18T05:44:19.131Z,100.00
2022-10-18T05:46:57.353Z,100.00
2022-10-18T05:49:47.301Z,100.00
2022-10-18T05:52:40.252Z,100.00
2022-10-18T05:55:18.171Z,100.00
2022-10-18T05:58:00.804Z,100.00
2022-10-18T06:00:41.539Z,100.00
2022-10-18T06:03:20.336Z,100.00
2022-10-18T06:06:10.913Z,100.00
2022-10-18T06:08:55.425Z,100.00
2022-10-18T06:11:30.897Z,100.00
2022-10-18T06:14:05.646Z,100.00
2022-10-18T06:16:46.616Z,100.00
2022-10-18T06:19:29.895Z,100.00
2022-10-18T06:22:20.694Z,100.00
2022-10-18T06:24:55.061Z,100.00
2022-10-18T06:27:40.973Z,100.00
2022-10-18T06:30:13.005Z,100.00
2022-10-18T06:32:46.405Z,100.00
2022-10-18T06:35:21.540Z,100.00
2022-10-18T06:38:15.858Z,100.00
2022-10-18T06:40:51.171Z,100.00
2022-10-18T06:43:44.815Z,100.00
2022-10-18T06:46:29.154Z,100.00
2022-10-18T06:49:02.376Z,100.00
2022-10-18T06:51:45.626Z,100.00
2022-10-18T06:54:33.379Z,100.00
2022-10-18T06:57:10.731Z,100.00
2022-10-18T06:59:58.251Z,100.00
2022-10-18T07:02:41.248Z,100.00
2022-10-18T07:05:22.953Z,100.00
2022-10-18T07:07:55.674Z,100.00
2022-10-18T07:10:39.084Z,100.00
2022-10-18T07:13:31.588Z,100.00
2022-10-18T07:16:26.773Z,100.00
2022-10-18T07:19:04.830Z,100.00
2022-10-18T07:21:43.236Z,100.00
2022-10-18T07:24:21.676Z,100.00
2022-10-18T07:27:10.318Z,100.00
2022-10-18T07:29:48.774Z,100.00
2022-10-18T07:32:33.774Z,100.00
2022-10-18T07:35:20.853Z,100.00
2022-10-18T07:38:07.679Z,100.00
2022-10-18T07:40:51.308Z,100.00
2022-10-18T07:43:34.373Z,100.00
2022-10-18T07:46:17.440Z,100.00
2022-10-18T07:49:05.703Z,100.00
2022-10-18T07:51:42.846Z,100.00
2022-10-18T07:54:22.399Z,100.00
2022-10-18T07:57:02.686Z,100.00
2022-10-18T07:59:46.347Z,99.41
2022-10-18T08:02:21.390Z,99.81
2022-10-18T08:05:05.305Z,96.29
2022-10-18T08:07:40.269Z,96.01
2022-10-18T08:10:31.254Z,94.14
2022-10-18T08:13:08.924Z,92.30
2022-10-18T08:15:48.484Z,93.02
2022-10-18T08:18:26.860Z,92.05
2022-10-18T08:21:19.777Z,90.90
2022-10-18T08:23:55.110Z,91.08
2022-10-18T08:26:41.825Z,91.18
2022-10-18T08:29:29.146Z,90.30
2022-10-18T08:32:05.733Z,87.54
2022-10-18T08:34:49.700Z,86.54
2022-10-18T08:37:27.008Z,87.84
2022-10-18T08:40:01.902Z,82.91
2022-10-18T08:42:58.938Z,82.98
2022-10-18T08:45:42.251Z,85.54
2022-10-18T08:48:22.346Z,83.49
2022-10-18T08:50:57.702Z,83.58
2022-10-18T08:53:40.091Z,83.55
2022-10-18T08:56:21.563Z,80.47
2022-10-18T08:59:06.141Z,80.67
2022-10-18T09:01:58.979Z,83.54
2022-10-18T09:04:54.221Z,84.01
2022-10-18T09:07:52.603Z,78.91
2022-10-18T09:10:45.720Z,78.53
2022-10-18T09:13:47.761Z,79.00
2022-10-18T09:16:47.602Z,79.24
2022-10-18T09:19:35.316Z,76.77
2022-10-18T09:22:42.167Z,78.11
2022-10-18T09:25:25.515Z,76.64
2022-10-18T09:28:42.003Z,75.48
2022-10-18T09:31:31.310Z,74.80
2022-10-18T09:34:26.738Z,72.96
2022-10-18T09:37:15.346Z,72.20
2022-10-18T09:40:05.993Z,71.70
2022-10-18T09:42:45.305Z,67.11
2022-10-18T09:45:32.024Z,64.17
2022-10-18T09:48:14.123Z,69.22
2022-10-18T09:51:11.188Z,66.22
2022-10-18T09:54:38.440Z,64.95
2022-10-18T09:57:28.858Z,64.83
2022-10-18T10:00:04.296Z,65.12
2022-10-18T10:02:39.621Z,61.52
2022-10-18T10:05:23.602Z,58.74
2022-10-18T10:08:05.501Z,56.78
2022-10-18T10:10:56.564Z,57.74
2022-10-18T10:13:33.300Z,57.75
2022-10-18T10:16:13.934Z,59.91
2022-10-18T10:19:04.617Z,56.69
2022-10-18T10:21:50.111Z,60.39
2022-10-18T10:24:30.280Z,59.34
2022-10-18T10:27:32.385Z,57.31
2022-10-18T10:30:26.484Z,54.50
2022-10-18T10:33:03.642Z,57.06
2022-10-18T10:35:53.403Z,52.72
2022-10-18T10:38:34.671Z,56.10
2022-10-18T10:43:54.723Z,53.57
2022-10-18T10:46:39.445Z,54.04
2022-10-18T10:49:39.590Z,53.42
2022-10-18T10:52:36.850Z,52.33
2022-10-18T10:55:38.359Z,53.25
2022-10-18T10:58:26.641Z,51.83
2022-10-18T11:01:21.520Z,49.73
2022-10-18T11:04:28.243Z,53.60
2022-10-18T11:07:39.508Z,53.81
2022-10-18T11:10:14.249Z,49.69
2022-10-18T11:13:04.415Z,52.87
2022-10-18T11:15:53.101Z,51.91
2022-10-18T11:18:34.704Z,50.12
2022-10-18T11:21:11.913Z,48.57
2022-10-18T11:23:54.196Z,51.50
2022-10-18T11:27:08.611Z,50.63
2022-10-18T11:29:57.126Z,49.01
2022-10-18T11:32:54.498Z,50.67
2022-10-18T11:36:03.522Z,51.10
2022-10-18T11:38:57.277Z,48.17
2022-10-18T11:42:13.748Z,50.01
2022-10-18T11:44:51.866Z,45.70
2022-10-18T11:47:56.572Z,48.23
2022-10-18T11:50:50.110Z,48.44
2022-10-18T11:53:37.659Z,47.09
2022-10-18T11:56:34.377Z,44.91
2022-10-18T11:59:24.258Z,46.44
2022-10-18T12:02:39.673Z,47.15
2022-10-18T12:05:29.748Z,46.01
2022-10-18T12:08:11.358Z,46.56
2022-10-18T12:11:04.981Z,46.84
2022-10-18T12:13:59.298Z,46.47
2022-10-18T12:17:20.214Z,45.61
2022-10-18T12:19:42.865Z,47.36
2022-10-18T12:22:33.258Z,44.41
2022-10-18T12:25:19.617Z,47.05
2022-10-18T12:28:06.310Z,45.78
2022-10-18T12:30:57.660Z,46.70
2022-10-18T12:33:44.703Z,46.65
2022-10-18T12:36:44.452Z,46.82
2022-10-18T12:40:08.576Z,46.87
2022-10-18T12:42:50.144Z,47.80
2022-10-18T12:45:47.498Z,44.61
2022-10-18T12:48:42.414Z,45.06
2022-10-18T12:51:28.620Z,48.31
2022-10-18T12:54:22.638Z,45.10
2022-10-18T12:56:57.656Z,47.01
2022-10-18T12:59:44.508Z,45.61
2022-10-18T13:02:24.517Z,45.23
2022-10-18T13:05:02.557Z,45.62
2022-10-18T13:07:41.053Z,46.75
2022-10-18T13:10:16.826Z,45.95
2022-10-18T13:13:29.575Z,45.58
2022-10-18T13:16:30.050Z,46.99
2022-10-18T13:19:25.302Z,46.63
2022-10-18T13:22:35.856Z,46.05
2022-10-18T13:25:21.826Z,44.45
2022-10-18T13:28:02.781Z,45.41
2022-10-18T13:31:13.955Z,45.20
2022-10-18T13:33:52.080Z,45.58
2022-10-18T13:36:29.948Z,44.50
2022-10-18T13:39:07.685Z,45.13
2022-10-18T13:41:55.123Z,44.71
2022-10-18T13:44:55.089Z,44.49
2022-10-18T13:47:42.767Z,43.53
2022-10-18T13:50:28.541Z,43.59
2022-10-18T13:53:27.228Z,43.60
2022-10-18T13:56:23.651Z,43.67
2022-10-18T13:59:20.380Z,44.69
2022-10-18T14:02:49.421Z,44.51
2022-10-18T14:11:25.960Z,44.62
2022-10-18T14:14:09.082Z,45.81
2022-10-18T14:17:25.406Z,46.24
2022-10-18T14:20:04.961Z,45.78
2022-10-18T14:22:54.031Z,45.90
2022-10-18T14:25:35.898Z,46.14
2022-10-18T14:28:27.425Z,45.14
2022-10-18T14:31:11.913Z,46.43
2022-10-18T14:33:59.738Z,44.73
2022-10-18T14:36:42.968Z,46.23
2022-10-18T14:39:38.386Z,45.15
2022-10-18T14:42:23.466Z,46.71
2022-10-18T14:45:00.643Z,46.51
2022-10-18T14:47:48.330Z,46.97
2022-10-18T14:50:30.902Z,48.51
2022-10-18T14:53:14.021Z,49.71
2022-10-18T14:56:03.762Z,48.92
2022-10-18T14:58:48.398Z,48.87
2022-10-18T15:01:40.407Z,48.23
2022-10-18T15:04:26.262Z,48.88
2022-10-18T15:07:15.937Z,49.12
2022-10-18T15:09:58.961Z,50.49
2022-10-18T15:12:41.220Z,51.97
2022-10-18T15:15:30.485Z,54.61
2022-10-18T15:18:08.369Z,56.62
2022-10-18T15:20:51.619Z,60.03
2022-10-18T15:23:50.312Z,65.10
2022-10-18T15:26:30.438Z,66.14
2022-10-18T15:29:04.574Z,66.55
2022-10-18T15:31:46.072Z,69.28
2022-10-18T15:34:26.979Z,70.11
2022-10-18T15:37:03.173Z,71.35
2022-10-18T15:39:41.417Z,72.26
2022-10-18T15:42:45.791Z,73.08
2022-10-18T15:48:48.288Z,74.60
2022-10-18T15:52:11.874Z,76.04
2022-10-18T15:54:44.766Z,77.40
2022-10-18T15:57:24.814Z,79.40
2022-10-18T16:00:07.635Z,80.00
2022-10-18T16:02:50.860Z,81.19
2022-10-18T16:05:25.741Z,82.13
2022-10-18T16:08:08.124Z,82.66
2022-10-18T16:10:46.620Z,83.25
2022-10-18T16:13:21.053Z,83.40
2022-10-18T16:16:01.726Z,84.70
2022-10-18T16:18:38.772Z,85.26
2022-10-18T16:21:32.270Z,85.70
2022-10-18T16:24:18.378Z,86.24
2022-10-18T16:27:04.363Z,86.95
2022-10-18T16:29:47.640Z,87.72
2022-10-18T16:32:22.775Z,88.22
2022-10-18T16:34:54.999Z,89.41
2022-10-18T16:37:40.057Z,90.10
2022-10-18T16:40:28.881Z,91.29
2022-10-18T16:43:05.383Z,92.71
2022-10-18T16:45:42.219Z,92.67
2022-10-18T16:48:24.703Z,93.14
2022-10-18T16:51:08.377Z,95.12
2022-10-18T16:53:40.205Z,95.65
2022-10-18T16:56:34.335Z,95.90
2022-10-18T16:59:10.733Z,96.26
2022-10-18T17:01:56.735Z,96.34
2022-10-18T17:04:31.861Z,96.89
2022-10-18T17:07:03.610Z,98.50
2022-10-18T17:09:41.207Z,99.50
2022-10-18T17:12:15.620Z,99.99
2022-10-18T17:14:51.025Z,100.00
2022-10-18T17:17:37.691Z,100.00
2022-10-18T17:20:35.343Z,100.00
2022-10-18T17:23:17.572Z,100.00
2022-10-18T17:26:08.523Z,100.00
2022-10-18T17:29:10.826Z,100.00
2022-10-18T17:31:46.347Z,100.00
2022-10-18T17:34:21.315Z,100.00
2022-10-18T17:36:59.831Z,100.00
2022-10-18T17:39:46.779Z,100.00
2022-10-18T17:42:22.018Z,100.00
2022-10-18T17:44:57.076Z,100.00
2022-10-18T17:47:38.172Z,100.00
2022-10-18T17:50:15.558Z,100.00
2022-10-18T17:52:59.251Z,100.00
2022-10-18T17:55:39.757Z,100.00
2022-10-18T17:58:22.478Z,100.00
2022-10-18T18:00:57.683Z,100.00
2022-10-18T18:03:29.912Z,100.00
2022-10-18T18:06:16.475Z,100.00
2022-10-18T18:08:58.075Z,100.00
2022-10-18T18:11:37.184Z,100.00
2022-10-18T18:14:24.410Z,100.00
2022-10-18T18:16:56.487Z,100.00
2022-10-18T18:19:33.884Z,100.00
2022-10-18T18:22:09.385Z,100.00
2022-10-18T18:24:44.250Z,100.00
2022-10-18T18:27:13.949Z,100.00
2022-10-18T18:30:03.247Z,100.00
2022-10-18T18:32:51.204Z,100.00
2022-10-18T18:35:40.961Z,100.00
2022-10-18T18:38:14.699Z,100.00
2022-10-18T18:40:50.413Z,100.00
2022-10-18T18:43:23.064Z,100.00
2022-10-18T18:46:07.091Z,100.00
2022-10-18T18:48:42.362Z,100.00
2022-10-18T18:51:25.075Z,100.00
2022-10-18T18:54:06.045Z,100.00
2022-10-18T18:56:47.273Z,100.00
2022-10-18T18:59:26.265Z,100.00
2022-10-18T19:02:03.740Z,100.00
2022-10-18T19:04:49.746Z,100.00
2022-10-18T19:07:22.528Z,100.00
2022-10-18T19:09:57.528Z,100.00
2022-10-18T19:12:40.332Z,100.00
2022-10-18T19:15:15.401Z,100.00
2022-10-18T19:18:08.284Z,100.00
2022-10-18T19:20:40.324Z,100.00
2022-10-18T19:23:13.128Z,100.00
2022-10-18T19:26:10.158Z,100.00
2022-10-18T19:28:51.306Z,100.00
2022-10-18T19:31:23.857Z,100.00
2022-10-18T19:34:04.097Z,100.00
2022-10-18T19:36:47.522Z,100.00
2022-10-18T19:39:28.429Z,100.00
2022-10-18T19:42:24.236Z,100.00
2022-10-18T19:44:58.827Z,100.00
2022-10-18T19:47:33.798Z,100.00
2022-10-18T19:50:12.826Z,100.00
2022-10-18T19:52:48.190Z,100.00
2022-10-18T19:55:31.034Z,100.00
2022-10-18T19:58:05.800Z,100.00
2022-10-18T20:00:57.428Z,100.00
2022-10-18T20:03:37.967Z,100.00
2022-10-18T20:06:16.778Z,100.00
2022-10-18T20:09:01.626Z,100.00
2022-10-18T20:11:40.480Z,100.00
2022-10-18T20:14:16.308Z,100.00
2022-10-18T20:16:54.410Z,100.00
2022-10-18T20:19:24.609Z,100.00
2022-10-18T20:22:07.531Z,100.00
2022-10-18T20:24:47.444Z,100.00
2022-10-18T20:27:22.965Z,100.00
2022-10-18T20:30:02.064Z,100.00
2022-10-18T20:32:36.925Z,100.00
2022-10-18T20:35:25.517Z,100.00
2022-10-18T20:38:06.322Z,100.00
2022-10-18T20:40:41.490Z,100.00
2022-10-18T20:43:19.629Z,100.00
2022-10-18T20:46:04.291Z,100.00
2022-10-18T20:48:39.700Z,100.00
2022-10-18T20:51:19.158Z,100.00
2022-10-18T20:54:06.374Z,100.00
2022-10-18T20:56:45.680Z,100.00
2022-10-18T20:59:23.537Z,100.00
2022-10-18T21:01:58.507Z,100.00
2022-10-18T21:04:33.775Z,100.00
2022-10-18T21:07:17.857Z,100.00
2022-10-18T21:09:56.372Z,100.00
2022-10-18T21:12:37.722Z,100.00
2022-10-18T21:15:12.799Z,100.00
2022-10-18T21:17:59.701Z,100.00
2022-10-18T21:20:43.465Z,100.00
2022-10-18T21:23:29.802Z,100.00
2022-10-18T21:26:08.121Z,100.00
2022-10-18T21:28:54.496Z,100.00
2022-10-18T21:31:27.091Z,100.00
2022-10-18T21:34:13.046Z,100.00
2022-10-18T21:36:52.319Z,100.00
2022-10-18T21:39:32.983Z,100.00
2022-10-18T21:42:05.346Z,100.00
2022-10-18T21:44:40.499Z,100.00
2022-10-18T21:47:18.556Z,100.00
2022-10-18T21:50:04.593Z,100.00
2022-10-18T21:52:42.984Z,100.00
2022-10-18T21:55:29.021Z,100.00
2022-10-18T21:58:06.477Z,100.00
2022-10-18T22:00:40.884Z,100.00
2022-10-18T22:03:23.299Z,100.00
2022-10-18T22:06:13.720Z,100.00
2022-10-18T22:08:57.674Z,100.00
2022-10-18T22:11:41.816Z,100.00
2022-10-18T22:14:23.057Z,100.00
2022-10-18T22:17:05.306Z,100.00
2022-10-18T22:19:39.795Z,100.00
2022-10-18T22:22:25.826Z,100.00
2022-10-18T22:25:01.103Z,100.00
2022-10-18T22:27:31.441Z,100.00
2022-10-18T22:30:07.660Z,100.00
2022-10-18T22:32:42.839Z,100.00
2022-10-18T22:35:17.864Z,100.00
2022-10-18T22:37:58.538Z,100.00
2022-10-18T22:40:42.213Z,100.00
2022-10-18T22:43:18.334Z,100.00
2022-10-18T22:45:52.889Z,100.00
2022-10-18T22:48:33.272Z,100.00
2022-10-18T22:51:12.236Z,100.00
2022-10-18T22:53:52.044Z,100.00
2022-10-18T22:56:32.397Z,100.00
2022-10-18T22:59:16.338Z,100.00
2022-10-18T23:01:53.081Z,100.00
2022-10-18T23:04:39.974Z,100.00
2022-10-18T23:07:16.344Z,100.00
2022-10-18T23:09:49.159Z,100.00
2022-10-18T23:12:31.254Z,100.00
2022-10-18T23:15:12.340Z,100.00
2022-10-18T23:18:02.181Z,100.00
2022-10-18T23:20:47.602Z,100.00
2022-10-18T23:23:23.407Z,100.00
2022-10-18T23:26:10.124Z,100.00
2022-10-18T23:28:46.554Z,100.00
2022-10-18T23:31:34.866Z,100.00
2022-10-18T23:34:13.606Z,100.00
2022-10-18T23:36:51.728Z,100.00
2022-10-18T23:39:34.096Z,100.00
2022-10-18T23:42:09.111Z,100.00
2022-10-18T23:44:53.262Z,100.00
2022-10-18T23:47:31.250Z,100.00
2022-10-18T23:50:07.183Z,100.00
2022-10-18T23:52:47.608Z,100.00
2022-10-18T23:55:22.603Z,100.00
2022-10-18T23:58:03.044Z,100.00
